Time;durP1;ratioP1;P1;durP2;ratioP2;P2;SDS_P1;SDS_P2;PMS_P1;PMS_P2;Temp;Humidity;BMP_temperature;BMP_pressure;BME280_temperature;BME280_humidity;BME280_pressure;Samples;Min_cycle;Max_cycle;Signal;HPM_P1;HPM_P2
2021/12/14 00:01:30;;;;;;;31.15;19.23;;;;;;;-0.24;79.57;100247.59;4842544;29;20091;-74
2021/12/14 00:03:59;;;;;;;32.10;19.95;;;;;;;-0.24;79.13;100240.59;4843105;29;20128;-66
2021/12/14 00:06:24;;;;;;;33.85;19.80;;;;;;;-0.28;79.19;100248.53;4842477;29;20083;-73
2021/12/14 00:08:59;;;;;;;32.67;19.58;;;;;;;-0.31;78.98;100249.44;4827619;29;20102;-72
2021/12/14 00:16:42;;;;;;;28.13;15.43;;;;;;;-0.28;79.47;100256.38;4842824;29;20044;-72
2021/12/14 00:19:08;;;;;;;29.67;16.75;;;;;;;-0.30;79.34;100252.91;4842241;29;20041;-70
2021/12/14 00:21:33;;;;;;;29.48;17.15;;;;;;;-0.30;79.16;100252.91;4842467;29;20053;-70
2021/12/14 00:24:13;;;;;;;35.30;18.50;;;;;;;-0.30;78.98;100247.69;4841985;29;20056;-68
2021/12/14 00:26:58;;;;;;;29.65;18.75;;;;;;;-0.25;79.09;100256.34;4841874;29;20113;-72
2021/12/14 00:29:49;;;;;;;31.10;16.80;;;;;;;-0.26;79.20;100255.47;4850808;29;20060;-66
2021/12/14 00:32:20;;;;;;;37.95;18.55;;;;;;;-0.32;79.05;100257.31;4840122;29;20057;-69
2021/12/14 00:34:51;;;;;;;33.85;19.27;;;;;;;-0.31;79.09;100259.91;4845317;29;20140;-71
2021/12/14 00:37:24;;;;;;;30.92;18.08;;;;;;;-0.30;79.20;100263.41;4849312;29;20052;-82
2021/12/14 00:39:52;;;;;;;31.13;18.58;;;;;;;-0.31;79.24;100259.03;4831034;29;20040;-70
2021/12/14 00:42:17;;;;;;;31.90;17.70;;;;;;;-0.30;79.07;100252.91;4861450;29;20055;-69
2021/12/14 00:44:44;;;;;;;32.13;19.48;;;;;;;-0.28;79.01;100249.38;4844161;29;20055;-68
2021/12/14 00:47:09;;;;;;;34.65;17.95;;;;;;;-0.27;79.00;100248.50;4860635;29;20575;-70
2021/12/14 00:49:34;;;;;;;35.88;19.08;;;;;;;-0.25;78.96;100256.34;4844613;29;20100;-74
2021/12/14 00:52:00;;;;;;;35.38;18.45;;;;;;;-0.21;78.90;100255.38;4812674;29;20040;-73
2021/12/14 00:54:25;;;;;;;32.67;18.40;;;;;;;-0.20;78.89;100254.47;4844010;29;20123;-73
2021/12/14 00:56:51;;;;;;;35.28;18.17;;;;;;;-0.21;78.71;100247.50;4844182;29;20131;-70
2021/12/14 00:59:18;;;;;;;31.05;19.73;;;;;;;-0.21;78.58;100242.28;4844346;29;20054;-70
2021/12/14 01:01:54;;;;;;;34.80;20.48;;;;;;;-0.17;78.58;100246.56;4844210;29;20511;-71
2021/12/14 01:04:25;;;;;;;32.47;19.33;;;;;;;-0.21;78.75;100260.59;4844310;29;20123;-69
2021/12/14 01:06:50;;;;;;;34.58;18.73;;;;;;;-0.22;78.76;100253.63;4843859;29;20048;-71
2021/12/14 01:09:20;;;;;;;35.05;19.08;;;;;;;-0.21;79.10;100248.38;4860258;29;20156;-68
2021/12/14 01:11:48;;;;;;;42.47;20.55;;;;;;;-0.22;78.90;100246.66;4860021;29;20638;-70
2021/12/14 01:14:32;;;;;;;34.42;20.92;;;;;;;-0.19;78.92;100254.47;4812635;29;20055;-70
2021/12/14 01:17:11;;;;;;;35.63;17.83;;;;;;;-0.22;78.67;100246.66;4829153;29;20044;-68
2021/12/14 01:19:48;;;;;;;40.20;19.38;;;;;;;-0.24;78.89;100242.34;4860506;29;20056;-70
2021/12/14 01:22:32;;;;;;;37.80;19.50;;;;;;;-0.25;78.80;100244.09;4844150;29;20040;-72
2021/12/14 01:25:06;;;;;;;36.27;19.57;;;;;;;-0.25;78.66;100248.47;4844244;29;20123;-72
2021/12/14 01:27:46;;;;;;;40.43;21.30;;;;;;;-0.22;78.96;100238.78;4843893;29;20300;-70
2021/12/14 01:30:18;;;;;;;32.42;18.42;;;;;;;-0.26;78.93;100231.03;4844063;29;20063;-69
2021/12/14 01:32:46;;;;;;;34.67;19.27;;;;;;;-0.30;79.08;100231.97;4843842;29;20500;-72
2021/12/14 01:35:14;;;;;;;45.45;20.17;;;;;;;-0.31;78.84;100240.72;4844023;29;20055;-70
2021/12/14 01:37:48;;;;;;;37.30;19.33;;;;;;;-0.32;79.03;100233.75;4843964;29;20044;-70
2021/12/14 01:40:30;;;;;;;34.35;19.88;;;;;;;-0.35;78.85;100232.06;4843787;29;20048;-72
2021/12/14 01:42:57;;;;;;;35.13;17.13;;;;;;;-0.32;78.88;100234.59;4843897;29;20579;-73
2021/12/14 01:45:23;;;;;;;31.30;17.23;;;;;;;-0.35;78.81;100244.28;4860655;29;20059;-71
2021/12/14 01:47:54;;;;;;;34.33;18.15;;;;;;;-0.39;78.95;100230.38;4843951;29;20051;-70
2021/12/14 01:51:01;;;;;;;30.85;16.80;;;;;;;-0.43;79.22;100232.19;4822415;29;20045;-74
2021/12/14 01:53:33;;;;;;;31.45;17.33;;;;;;;-0.49;78.81;100231.44;4807346;29;20602;-72
2021/12/14 01:56:05;;;;;;;33.17;18.58;;;;;;;-0.49;78.99;100224.44;4822877;29;20408;-74
2021/12/14 01:58:51;;;;;;;33.13;17.10;;;;;;;-0.52;78.88;100227.09;4807282;29;20229;-79
2021/12/14 02:01:21;;;;;;;29.80;16.55;;;;;;;-0.59;78.97;100235.09;4787552;29;20068;-73
2021/12/14 02:04:00;;;;;;;28.17;16.60;;;;;;;-0.58;78.73;100231.59;4822270;29;20056;-73
2021/12/14 02:06:32;;;;;;;27.75;16.52;;;;;;;-0.61;78.93;100232.50;4806267;29;20080;-74
2021/12/14 02:09:11;;;;;;;31.33;18.42;;;;;;;-0.60;79.15;100229.00;4813415;29;20052;-75
2021/12/14 02:11:42;;;;;;;29.05;16.75;;;;;;;-0.61;79.17;100227.28;4821459;29;20417;-74
2021/12/14 02:14:08;;;;;;;30.02;16.92;;;;;;;-0.63;79.16;100229.03;4822197;29;20045;-73
2021/12/14 02:16:34;;;;;;;29.95;18.48;;;;;;;-0.63;79.09;100228.19;4820947;29;20588;-73
2021/12/14 02:19:05;;;;;;;31.60;17.20;;;;;;;-0.61;79.22;100224.66;4805124;29;20520;-71
2021/12/14 02:21:31;;;;;;;29.70;18.40;;;;;;;-0.63;79.14;100233.41;4821153;29;20525;-72
2021/12/14 02:23:59;;;;;;;31.17;17.08;;;;;;;-0.66;79.31;100218.63;4825115;29;20042;-72
2021/12/14 02:26:29;;;;;;;30.45;16.15;;;;;;;-0.64;79.05;100229.94;4860258;29;20041;-74
2021/12/14 02:28:58;;;;;;;33.13;17.98;;;;;;;-0.69;79.03;100229.16;4860876;29;20073;-77
2021/12/14 02:31:25;;;;;;;25.35;15.50;;;;;;;-0.68;79.04;100228.28;4830594;29;20052;-69
2021/12/14 02:33:51;;;;;;;35.10;17.90;;;;;;;-0.66;79.28;100234.31;4831296;29;20060;-69
2021/12/14 02:36:48;;;;;;;28.40;15.85;;;;;;;-0.59;79.41;100232.47;4847154;29;20419;-71
2021/12/14 02:40:00;;;;;;;32.78;17.23;;;;;;;-0.63;79.28;100222.94;4832334;29;20052;-72
2021/12/14 02:42:20;;;;;;;32.72;18.30;;;;;;;-0.63;78.97;100221.19;4828985;29;20048;-70
2021/12/14 02:44:47;;;;;;;31.42;16.70;;;;;;;-0.66;79.13;100218.63;4831398;29;20048;-71
2021/12/14 02:47:16;;;;;;;34.97;17.33;;;;;;;-0.68;78.95;100214.31;4863732;29;20104;-69
2021/12/14 02:49:42;;;;;;;37.28;18.80;;;;;;;-0.71;78.91;100220.47;4846569;29;20052;-71
2021/12/14 02:52:14;;;;;;;28.45;17.73;;;;;;;-0.71;78.99;100220.47;4846545;29;20052;-74
2021/12/14 02:54:47;;;;;;;32.33;16.95;;;;;;;-0.69;79.20;100223.94;4846526;29;20045;-67
2021/12/14 02:57:18;;;;;;;30.42;17.85;;;;;;;-0.66;79.27;100208.13;4852090;29;20062;-68
2021/12/14 02:59:46;;;;;;;28.42;17.02;;;;;;;-0.65;79.35;100211.63;4865066;29;20048;-67
2021/12/14 03:02:24;;;;;;;30.65;17.13;;;;;;;-0.65;79.16;100214.25;4849114;29;20566;-68
2021/12/14 03:04:56;;;;;;;30.92;17.50;;;;;;;-0.62;79.27;100214.19;4865187;29;20048;-67
2021/12/14 03:07:25;;;;;;;30.90;17.13;;;;;;;-0.63;79.40;100210.72;4864885;29;20059;-68
2021/12/14 03:09:58;;;;;;;25.70;14.68;;;;;;;-0.64;79.21;100219.47;4864654;29;20048;-67
2021/12/14 03:12:39;;;;;;;30.13;16.60;;;;;;;-0.63;79.16;100215.94;4881545;29;20058;-67
2021/12/14 03:15:19;;;;;;;27.10;15.00;;;;;;;-0.66;79.06;100212.50;4849084;29;20182;-68
2021/12/14 03:17:46;;;;;;;26.90;17.92;;;;;;;-0.67;79.27;100226.50;4864431;29;20160;-66
2021/12/14 03:20:37;;;;;;;24.35;14.48;;;;;;;-0.60;79.18;100226.38;4864719;29;20075;-64
2021/12/14 03:23:11;;;;;;;27.50;15.90;;;;;;;-0.62;79.29;100230.78;4881617;29;20048;-65
2021/12/14 03:25:39;;;;;;;27.13;16.33;;;;;;;-0.62;79.02;100222.91;4864795;29;20423;-65
2021/12/14 03:28:05;;;;;;;27.85;15.68;;;;;;;-0.60;79.30;100217.66;4881820;29;20395;-68
2021/12/14 03:30:35;;;;;;;32.05;16.55;;;;;;;-0.58;79.27;100223.75;4864098;29;20391;-65
2021/12/14 03:33:16;;;;;;;27.98;15.95;;;;;;;-0.56;79.26;100214.06;4881338;29;20691;-67
2021/12/14 03:35:57;;;;;;;29.35;15.65;;;;;;;-0.60;78.81;100221.16;4865038;29;20048;-68
2021/12/14 03:38:46;;;;;;;27.05;16.17;;;;;;;-0.61;79.18;100221.16;4881640;29;20251;-67
2021/12/14 03:41:23;;;;;;;24.80;14.50;;;;;;;-0.67;79.06;100216.00;4864643;29;20471;-68
2021/12/14 03:44:02;;;;;;;27.02;16.13;;;;;;;-0.66;79.03;100222.97;4865477;29;20048;-69
2021/12/14 03:46:45;;;;;;;29.92;16.00;;;;;;;-0.73;79.25;100215.25;4865466;29;20132;-70
2021/12/14 03:49:11;;;;;;;29.77;15.88;;;;;;;-0.79;79.05;100206.66;4856664;29;20083;-70
2021/12/14 03:51:39;;;;;;;33.45;16.83;;;;;;;-0.83;78.95;100212.81;4871353;29;20059;-69
2021/12/14 03:54:05;;;;;;;25.67;14.60;;;;;;;-0.85;79.25;100223.28;4865325;29;20456;-72
2021/12/14 03:56:31;;;;;;;28.02;15.00;;;;;;;-0.91;79.18;100222.53;4849700;29;20059;-72
2021/12/14 03:58:56;;;;;;;25.08;14.60;;;;;;;-0.93;79.02;100203.38;4833618;29;20071;-73
2021/12/14 04:01:26;;;;;;;29.90;16.30;;;;;;;-0.96;79.28;100213.88;4864799;29;20047;-73
2021/12/14 04:04:10;;;;;;;31.10;16.65;;;;;;;-0.97;79.45;100212.16;4844124;29;20415;-72
2021/12/14 04:06:37;;;;;;;25.20;13.70;;;;;;;-1.01;79.50;100219.19;4830440;29;20052;-71
2021/12/14 04:09:03;;;;;;;24.05;14.35;;;;;;;-1.04;79.56;100218.38;4848700;29;20054;-72
2021/12/14 04:11:28;;;;;;;25.50;14.45;;;;;;;-1.03;79.54;100223.59;4850148;29;20377;-71
2021/12/14 04:13:54;;;;;;;23.13;13.60;;;;;;;-1.03;79.57;100220.13;4832684;29;20046;-72
2021/12/14 04:16:30;;;;;;;29.08;15.07;;;;;;;-1.03;79.63;100220.97;4845838;29;20050;-71
2021/12/14 04:19:03;;;;;;;27.58;15.32;;;;;;;-1.01;79.83;100237.50;4845312;29;20045;-71
2021/12/14 04:21:28;;;;;;;25.25;14.77;;;;;;;-1.01;79.64;100236.63;4845610;29;20503;-71
2021/12/14 11:32:04;;;;;;;37.17;19.60;;;;;;;-0.49;74.15;100279.44;5730354;23;20059;-68
2021/12/14 11:34:37;;;;;;;36.78;19.02;;;;;;;-0.48;74.11;100275.94;4829818;29;20119;-66
2021/12/14 11:37:15;;;;;;;34.25;18.38;;;;;;;-0.49;74.10;100271.59;4836191;29;20050;-71
2021/12/14 11:39:48;;;;;;;34.97;19.90;;;;;;;-0.46;74.39;100271.53;4866578;29;20078;-66
2021/12/14 11:42:24;;;;;;;34.72;18.58;;;;;;;-0.46;74.17;100266.31;4864836;29;20124;-67
2021/12/14 11:45:04;;;;;;;35.90;19.38;;;;;;;-0.45;73.96;100269.75;4863157;29;20131;-66
2021/12/14 11:50:13;;;;;;;32.60;19.00;;;;;;;-0.48;74.21;100270.69;4862920;29;20072;-66
2021/12/14 11:52:58;;;;;;;41.10;20.13;;;;;;;-0.42;74.18;100272.34;4862867;29;20376;-66
2021/12/14 11:55:31;;;;;;;30.13;16.83;;;;;;;-0.48;74.30;100269.84;4862745;29;20048;-66
2021/12/14 11:58:35;;;;;;;38.20;20.08;;;;;;;-0.48;74.02;100273.31;4862555;29;20059;-67
2021/12/14 12:01:26;;;;;;;34.22;18.30;;;;;;;-0.53;74.16;100274.25;4862934;29;20045;-67
2021/12/14 12:04:04;;;;;;;34.28;18.70;;;;;;;-0.48;74.10;100273.31;4862194;29;20068;-69
2021/12/14 12:09:30;;;;;;;30.15;17.55;;;;;;;-0.54;73.95;100267.28;4845789;29;20464;-66
2021/12/14 12:12:04;;;;;;;34.88;17.23;;;;;;;-0.55;73.85;100274.28;4862564;29;20075;-66
2021/12/14 12:14:58;;;;;;;38.38;18.92;;;;;;;-0.54;74.05;100278.63;4845687;29;20051;-66
2021/12/14 12:17:31;;;;;;;39.47;17.30;;;;;;;-0.57;74.14;100270.00;4845738;29;20051;-66
2021/12/14 12:20:17;;;;;;;35.67;18.40;;;;;;;-0.54;74.22;100276.03;4845343;29;20048;-67
2021/12/14 12:22:50;;;;;;;37.88;16.50;;;;;;;-0.58;73.79;100282.22;4845586;29;20100;-66
2021/12/14 12:25:18;;;;;;;33.97;18.95;;;;;;;-0.63;74.06;100284.03;4862242;29;20036;-66
2021/12/14 12:27:46;;;;;;;35.50;18.27;;;;;;;-0.63;73.98;100281.41;4862162;29;20526;-67
2021/12/14 12:30:37;;;;;;;29.92;18.50;;;;;;;-0.62;73.86;100288.38;4862153;29;20052;-67
2021/12/14 12:33:24;;;;;;;32.22;17.08;;;;;;;-0.60;74.10;100289.22;4829676;29;20060;-65
2021/12/14 12:36:03;;;;;;;29.05;17.35;;;;;;;-0.64;74.23;100289.28;4862159;29;20127;-68
2021/12/14 12:38:31;;;;;;;36.38;19.40;;;;;;;-0.67;74.25;100290.19;4862105;29;20044;-69
2021/12/14 12:41:03;;;;;;;30.73;17.15;;;;;;;-0.69;74.20;100286.75;4829602;29;20105;-67
2021/12/14 12:43:30;;;;;;;37.42;18.60;;;;;;;-0.73;74.33;100282.44;4876455;29;20407;-65
2021/12/14 12:46:12;;;;;;;41.53;19.17;;;;;;;-0.74;74.31;100286.81;4849311;29;20093;-63
2021/12/14 12:48:59;;;;;;;;;;;;;;;-0.62;74.47;100292.75;4826858;29;20056;-64
2021/12/14 12:51:42;;;;;;;29.42;16.13;;;;;;;-0.68;74.41;100290.25;4833309;29;19970;-65
2021/12/14 12:54:22;;;;;;;36.88;18.40;;;;;;;-0.73;74.56;100287.69;4834228;29;20079;-64
2021/12/14 12:57:10;;;;;;;37.05;18.40;;;;;;;-0.77;74.76;100280.75;4846704;29;20136;-63
2021/12/14 12:59:37;;;;;;;32.58;17.95;;;;;;;-0.80;74.58;100283.44;4837935;29;20048;-65
2021/12/14 13:02:30;;;;;;;30.63;18.02;;;;;;;-0.81;74.41;100286.94;4844963;29;20100;-66
2021/12/14 13:05:02;;;;;;;54.38;20.10;;;;;;;-0.86;74.76;100291.38;4861472;29;20052;-65
2021/12/14 13:07:35;;;;;;;53.67;21.33;;;;;;;-0.83;74.91;100283.47;4844485;29;20049;-65
2021/12/14 13:10:26;;;;;;;28.13;17.40;;;;;;;-0.83;74.76;100278.25;4844657;29;20088;-64
2021/12/14 13:12:51;;;;;;;31.45;19.10;;;;;;;-0.83;74.88;100273.00;4861200;29;20041;-65
2021/12/14 13:15:45;;;;;;;32.63;19.58;;;;;;;-0.76;74.95;100267.66;4844164;29;20052;-66
2021/12/14 13:18:32;;;;;;;31.20;17.55;;;;;;;-0.74;74.81;100278.97;4854767;29;20048;-65
2021/12/14 13:21:13;;;;;;;31.30;16.60;;;;;;;-0.69;74.60;100275.41;4861552;29;20412;-66
2021/12/14 13:23:44;;;;;;;31.20;18.02;;;;;;;-0.73;74.92;100271.97;4862086;29;20048;-66
2021/12/14 13:26:30;;;;;;;27.35;14.95;;;;;;;-0.75;74.90;100273.75;4861790;29;20040;-65
2021/12/14 13:29:01;;;;;;;29.02;15.18;;;;;;;-0.83;74.88;100271.25;4861504;29;20048;-66
2021/12/14 13:31:36;;;;;;;29.23;14.93;;;;;;;-0.84;74.80;100273.91;4861284;29;20074;-65
2021/12/14 13:34:06;;;;;;;23.58;14.50;;;;;;;-0.89;74.63;100270.47;4844320;29;20060;-65
2021/12/14 13:36:31;;;;;;;31.90;15.68;;;;;;;-0.92;74.54;100265.31;4844423;29;20108;-66
2021/12/14 13:38:56;;;;;;;32.42;15.27;;;;;;;-0.93;74.44;100268.81;4861194;29;20052;-65
2021/12/14 13:41:35;;;;;;;27.45;15.27;;;;;;;-0.90;74.30;100266.97;4844257;29;20053;-66
2021/12/14 13:44:00;;;;;;;27.58;15.13;;;;;;;-0.94;74.43;100281.03;4860796;29;20119;-65
2021/12/14 13:46:25;;;;;;;30.10;14.63;;;;;;;-0.93;75.01;100271.41;4861629;29;20063;-64
2021/12/14 13:48:50;;;;;;;27.38;14.60;;;;;;;-0.93;74.96;100271.41;4828961;29;20049;-69
2021/12/14 13:51:20;;;;;;;25.60;14.45;;;;;;;-0.93;74.67;100268.81;4861874;29;20052;-65
2021/12/14 13:53:48;;;;;;;32.75;14.50;;;;;;;-0.94;74.77;100270.56;4853630;29;20388;-68
2021/12/14 13:56:20;;;;;;;37.38;16.88;;;;;;;-0.92;74.72;100278.38;4850542;29;20049;-66
2021/12/14 13:58:46;;;;;;;25.58;13.20;;;;;;;-0.95;74.34;100268.81;4834705;29;20123;-67
2021/12/14 14:01:20;;;;;;;23.38;14.15;;;;;;;-0.94;74.82;100272.31;4836361;29;20075;-67
2021/12/14 14:03:49;;;;;;;25.85;13.15;;;;;;;-0.99;74.62;100267.13;4854163;29;20045;-65
2021/12/14 14:06:16;;;;;;;26.00;14.77;;;;;;;-1.02;74.58;100267.19;4848585;29;20503;-70
2021/12/14 14:08:48;;;;;;;27.73;15.45;;;;;;;-1.01;74.51;100281.13;4851812;29;20051;-68
2021/12/14 14:11:20;;;;;;;26.63;15.23;;;;;;;-1.04;74.84;100262.88;4850978;29;20036;-65
2021/12/14 14:13:45;;;;;;;25.02;13.90;;;;;;;-1.16;74.52;100272.63;4856361;29;20068;-67
2021/12/14 14:16:11;;;;;;;24.30;14.73;;;;;;;-1.25;74.67;100277.13;4842770;29;20113;-66
2021/12/14 14:18:41;;;;;;;28.08;14.77;;;;;;;-1.31;75.10;100274.56;4842677;29;20056;-65
2021/12/14 14:21:09;;;;;;;24.98;15.00;;;;;;;-1.31;74.88;100278.03;4842494;29;20201;-68
2021/12/14 14:23:39;;;;;;;28.15;14.38;;;;;;;-1.32;74.96;100284.16;4844288;29;20055;-67
2021/12/14 14:26:12;;;;;;;28.65;14.90;;;;;;;-1.39;74.79;100292.13;4854823;29;20105;-67
2021/12/14 14:28:43;;;;;;;28.55;14.52;;;;;;;-1.43;74.84;100293.91;4846830;29;20116;-68
2021/12/14 14:31:14;;;;;;;32.42;15.07;;;;;;;-1.38;74.74;100296.47;4864310;29;20056;-67
2021/12/14 14:33:47;;;;;;;31.92;14.25;;;;;;;-1.47;74.73;100285.22;4861234;29;20510;-66
2021/12/14 14:36:12;;;;;;;27.67;14.90;;;;;;;-1.54;74.73;100293.16;4853021;29;20040;-65
2021/12/14 14:39:19;;;;;;;24.67;13.45;;;;;;;-1.49;74.96;100297.47;4853797;29;20052;-67
2021/12/14 14:41:59;;;;;;;24.60;13.80;;;;;;;-1.45;74.95;100308.72;4848059;29;20144;-63
2021/12/14 14:44:30;;;;;;;30.05;15.70;;;;;;;-1.45;75.29;100303.50;4845352;29;20045;-65
2021/12/14 14:47:25;;;;;;;30.20;15.02;;;;;;;-1.37;75.37;100301.69;4848026;29;20469;-65
2021/12/14 14:49:53;;;;;;;24.13;15.18;;;;;;;-1.40;75.45;100293.88;4848438;29;20516;-66
2021/12/14 14:52:27;;;;;;;31.85;16.58;;;;;;;-1.38;74.81;100293.84;4864022;29;20051;-66
2021/12/14 14:55:28;;;;;;;23.88;15.00;;;;;;;-1.41;75.17;100299.13;4864038;29;20048;-64
2021/12/14 14:58:10;;;;;;;29.63;16.58;;;;;;;-1.37;74.94;100292.97;4830339;29;20536;-65
2021/12/14 15:01:05;;;;;;;26.42;14.23;;;;;;;-1.42;74.95;100298.25;4863172;29;20212;-67
2021/12/14 15:03:38;;;;;;;28.23;15.35;;;;;;;-1.46;75.19;100301.78;4846541;29;20186;-69
2021/12/14 15:06:21;;;;;;;31.92;16.73;;;;;;;-1.43;75.59;100287.81;4863163;29;20053;-68
2021/12/14 15:08:51;;;;;;;29.95;16.15;;;;;;;-1.44;75.28;100293.91;4846448;29;20048;-68
2021/12/14 15:11:32;;;;;;;30.45;17.63;;;;;;;-1.41;75.51;100286.03;4858378;29;20053;-68
2021/12/14 15:14:08;;;;;;;29.58;15.90;;;;;;;-1.45;75.36;100287.81;4858646;29;20041;-68
2021/12/14 15:17:01;;;;;;;40.20;18.73;;;;;;;-1.36;74.96;100279.00;4814189;29;20133;-66
2021/12/14 15:19:42;;;;;;;30.23;17.40;;;;;;;-1.51;75.34;100282.69;4750125;30;20102;-68
2021/12/14 15:22:29;;;;;;;28.95;16.70;;;;;;;-1.57;75.29;100287.97;4738145;30;20047;-67
2021/12/14 15:25:08;;;;;;;35.08;17.92;;;;;;;-1.59;74.83;100281.91;4753265;30;20794;-68
2021/12/14 15:27:47;;;;;;;34.95;17.45;;;;;;;-1.67;75.43;100275.88;4748613;30;20058;-67
2021/12/14 15:30:44;;;;;;;32.72;17.05;;;;;;;-1.64;75.78;100270.63;4736681;30;20096;-66
2021/12/14 15:33:49;;;;;;;26.38;16.30;;;;;;;-1.57;75.90;100267.91;4749966;29;20480;-68
2021/12/14 15:36:18;;;;;;;27.02;16.27;;;;;;;-1.58;75.66;100273.19;4699474;30;20106;-68
2021/12/14 15:39:06;;;;;;;31.50;16.33;;;;;;;-1.54;74.99;100278.34;4713926;30;20059;-69
2021/12/14 15:41:40;;;;;;;32.45;16.58;;;;;;;-1.54;75.17;100277.47;4714072;30;20056;-68
2021/12/14 15:44:18;;;;;;;35.03;16.55;;;;;;;-1.53;75.30;100274.84;4682849;30;20056;-67
2021/12/14 15:46:52;;;;;;;27.60;15.65;;;;;;;-1.49;74.92;100273.06;4715236;30;20531;-69
2021/12/14 15:49:29;;;;;;;30.70;15.82;;;;;;;-1.48;75.12;100272.19;4715296;30;20515;-66
2021/12/14 15:52:00;;;;;;;31.85;17.67;;;;;;;-1.50;74.99;100263.50;4729915;30;20067;-66
2021/12/14 15:54:38;;;;;;;29.15;15.68;;;;;;;-1.47;75.31;100269.53;4715942;30;20135;-67
2021/12/14 15:57:14;;;;;;;31.35;16.80;;;;;;;-1.49;74.79;100260.84;4792488;29;20064;-71
2021/12/14 15:59:47;;;;;;;31.10;17.58;;;;;;;-1.48;74.95;100266.97;4812722;29;20524;-70
2021/12/14 16:02:20;;;;;;;30.25;16.25;;;;;;;-1.48;74.91;100254.75;4810275;29;20507;-72
2021/12/14 16:04:47;;;;;;;25.95;16.10;;;;;;;-1.48;74.71;100251.28;4806901;29;20482;-71
2021/12/14 16:07:14;;;;;;;34.40;17.65;;;;;;;-1.48;74.79;100248.66;4804186;29;20049;-69
2021/12/14 16:09:46;;;;;;;29.20;16.45;;;;;;;-1.48;75.21;100251.28;4804717;29;20385;-69
2021/12/14 16:15:07;;;;;;;30.30;16.67;;;;;;;-1.47;74.80;100253.00;4821116;29;20084;-70
2021/12/14 16:15:14;;;;;;;31.90;16.33;;;;;;;-1.46;74.68;100258.19;4843686;29;20047;-69
2021/12/14 16:17:54;;;;;;;32.10;18.02;;;;;;;-1.47;74.82;100253.84;4827023;29;20040;-70
2021/12/14 16:20:27;;;;;;;27.23;16.35;;;;;;;-1.47;74.94;100250.38;4826818;29;20095;-70
2021/12/14 16:22:54;;;;;;;29.35;17.33;;;;;;;-1.47;74.64;100246.00;4843252;29;20052;-68
2021/12/14 16:25:44;;;;;;;28.20;16.85;;;;;;;-1.42;75.17;100259.03;4811040;29;20052;-68
2021/12/14 16:28:16;;;;;;;28.77;17.40;;;;;;;-1.46;74.94;100255.56;4843300;29;20056;-69
2021/12/14 16:30:51;;;;;;;36.50;17.02;;;;;;;-1.43;74.87;100257.28;4827170;29;20052;-70
2021/12/14 16:33:24;;;;;;;30.35;18.20;;;;;;;-1.43;74.76;100257.28;4823406;29;20172;-71
2021/12/14 16:36:07;;;;;;;35.70;18.00;;;;;;;-1.39;74.75;100255.50;4830364;29;20057;-71
2021/12/14 16:38:37;;;;;;;29.02;17.17;;;;;;;-1.41;74.69;100254.66;4818310;29;20045;-70
2021/12/14 16:41:07;;;;;;;29.92;17.15;;;;;;;-1.42;74.57;100261.63;4832234;29;20049;-69
2021/12/14 16:43:37;;;;;;;32.38;18.20;;;;;;;-1.42;74.85;100266.88;4832051;29;20497;-71
2021/12/14 16:46:11;;;;;;;28.33;16.67;;;;;;;-1.39;74.72;100261.59;4830577;29;20546;-71
2021/12/14 16:48:40;;;;;;;37.10;19.65;;;;;;;-1.39;74.88;100266.84;4832416;29;20109;-68
2021/12/14 16:51:09;;;;;;;34.38;18.75;;;;;;;-1.39;74.96;100261.59;4829598;29;20492;-70
2021/12/14 16:53:52;;;;;;;37.17;19.65;;;;;;;-1.35;74.59;100257.16;4832824;29;20041;-75
2021/12/14 16:56:19;;;;;;;33.03;18.67;;;;;;;-1.38;74.91;100259.84;4832451;29;20042;-70
2021/12/14 16:58:48;;;;;;;37.88;20.30;;;;;;;-1.36;74.58;100251.09;4830017;29;20048;-71
2021/12/14 17:01:14;;;;;;;44.20;22.50;;;;;;;-1.36;74.76;100247.63;4817981;29;20056;-69
2021/12/14 17:03:41;;;;;;;42.72;22.10;;;;;;;-1.34;74.48;100251.06;4843180;29;20045;-66
2021/12/14 17:06:11;;;;;;;45.67;22.33;;;;;;;-1.34;74.73;100254.53;4826446;29;20053;-67
2021/12/14 17:08:39;;;;;;;41.42;23.27;;;;;;;-1.41;74.29;100252.91;4841903;29;20049;-66
2021/12/14 17:11:13;;;;;;;44.03;23.73;;;;;;;-1.47;74.75;100259.06;4842860;29;20200;-78
2021/12/14 17:13:41;;;;;;;43.00;22.97;;;;;;;-1.42;74.96;100248.56;4842572;29;20128;-78
2021/12/14 17:16:10;;;;;;;52.17;24.35;;;;;;;-1.54;75.20;100253.94;4826811;29;20056;-69
2021/12/14 17:18:43;;;;;;;51.28;24.85;;;;;;;-1.64;75.49;100254.94;4821158;29;20148;-68
2021/12/14 17:21:17;;;;;;;51.95;25.88;;;;;;;-1.68;75.08;100263.69;4842507;29;20140;-68
2021/12/14 17:23:43;;;;;;;50.40;25.40;;;;;;;-1.74;75.37;100261.19;4825765;29;20045;-69
2021/12/14 17:26:19;;;;;;;50.17;25.27;;;;;;;-1.78;75.15;100249.00;4823199;29;20413;-68
2021/12/14 17:28:52;;;;;;;48.75;25.98;;;;;;;-1.76;76.09;100257.72;4823146;29;20084;-69
2021/12/14 17:31:28;;;;;;;46.97;23.83;;;;;;;-1.71;75.87;100262.00;4823259;29;20052;-68
2021/12/14 17:33:56;;;;;;;67.57;31.02;;;;;;;-1.87;75.24;100257.84;4839879;29;20140;-69
2021/12/14 17:36:24;;;;;;;57.75;30.17;;;;;;;-1.85;75.24;100248.22;4842834;29;20048;-70
2021/12/14 17:38:53;;;;;;;55.92;26.88;;;;;;;-1.81;75.22;100251.69;4826174;29;20045;-70
2021/12/14 17:41:37;;;;;;;77.65;37.47;;;;;;;-2.01;75.03;100254.50;4834691;29;20045;-70
2021/12/14 17:44:11;;;;;;;62.22;30.27;;;;;;;-2.05;74.73;100255.44;4854804;29;20049;-71
2021/12/14 17:46:36;;;;;;;59.75;28.10;;;;;;;-2.01;75.49;100259.72;4846873;29;20189;-70
2021/12/14 17:49:16;;;;;;;62.65;29.65;;;;;;;-1.94;75.48;100245.72;4828200;29;20420;-70
2021/12/14 17:52:03;;;;;;;61.38;28.45;;;;;;;-1.90;75.37;100248.28;4843594;29;20099;-69
2021/12/14 17:54:42;;;;;;;73.78;31.55;;;;;;;-2.01;75.47;100255.38;4842482;29;20052;-69
2021/12/14 18:00:18;;;;;;;63.65;26.98;;;;;;;-1.99;75.62;100251.00;4842659;29;20064;-69
2021/12/14 18:02:44;;;;;;;59.72;28.23;;;;;;;-2.11;75.89;100247.66;4846398;29;20041;-70
2021/12/14 18:05:16;;;;;;;65.88;27.65;;;;;;;-2.11;76.31;100251.13;4809896;29;20097;-68
2021/12/14 18:07:59;;;;;;;66.95;30.63;;;;;;;-2.22;75.82;100247.75;4825599;29;20527;-69
2021/12/14 18:10:37;;;;;;;65.65;29.77;;;;;;;-2.22;76.13;100252.97;4825571;29;20077;-68
2021/12/14 18:13:10;;;;;;;60.38;27.15;;;;;;;-2.23;76.26;100243.41;4825718;29;20076;-69
2021/12/14 18:15:45;;;;;;;61.67;27.50;;;;;;;-2.25;76.33;100240.81;4825666;29;20063;-69
2021/12/14 18:20:58;;;;;;;45.30;22.67;;;;;;;-2.13;76.09;100246.78;4825355;29;20064;-70
2021/12/14 18:23:27;;;;;;;55.83;25.40;;;;;;;-2.23;76.28;100248.63;4826938;29;20530;-70
2021/12/14 18:26:09;;;;;;;49.75;24.08;;;;;;;-2.12;76.14;100248.53;4787592;29;20923;-69
2021/12/14 18:28:37;;;;;;;46.97;23.90;;;;;;;-2.26;76.23;100244.31;4807315;29;20079;-69
2021/12/14 18:31:06;;;;;;;54.08;26.00;;;;;;;-2.26;75.94;100246.09;4791436;29;20421;-68
2021/12/14 18:33:35;;;;;;;48.10;24.58;;;;;;;-2.21;76.63;100244.28;4806470;29;20073;-67
2021/12/14 18:36:04;;;;;;;54.10;24.58;;;;;;;-2.16;75.84;100241.63;4799894;29;20870;-69
2021/12/14 18:38:30;;;;;;;43.30;22.25;;;;;;;-2.13;76.42;100242.44;4809732;29;20814;-69
2021/12/14 18:41:03;;;;;;;44.17;19.63;;;;;;;-2.05;76.32;100239.75;4806353;29;20160;-70
2021/12/14 18:43:36;;;;;;;60.83;24.08;;;;;;;-2.23;75.66;100232.97;4801658;29;20119;-69
2021/12/14 18:46:11;;;;;;;48.10;22.02;;;;;;;-2.25;75.51;100234.72;4798372;29;20050;-70
2021/12/14 18:51:38;;;;;;;35.75;18.58;;;;;;;-2.13;76.45;100223.28;4812914;29;20326;-69
2021/12/14 18:54:08;;;;;;;35.65;17.13;;;;;;;-2.14;76.03;100211.97;4811454;29;20148;-70
2021/12/14 18:56:37;;;;;;;39.53;20.00;;;;;;;-2.06;76.12;100224.97;4828526;29;20053;-69
2021/12/14 18:59:20;;;;;;;42.85;19.38;;;;;;;-2.04;76.30;100213.63;4856103;29;20514;-70
2021/12/14 19:01:54;;;;;;;39.40;18.35;;;;;;;-2.06;76.29;100215.38;4856113;29;20504;-69
2021/12/14 19:04:24;;;;;;;38.22;18.55;;;;;;;-2.08;76.46;100222.38;4852522;29;20127;-68
2021/12/14 19:06:55;;;;;;;40.97;20.88;;;;;;;-2.06;76.16;100228.44;4853500;29;20802;-70
2021/12/14 19:09:31;;;;;;;35.83;19.73;;;;;;;-2.15;75.85;100215.50;4822510;29;20072;-69